Time;durP1;ratioP1;P1;durP2;ratioP2;P2;SDS_P1;SDS_P2;PMS_P1;PMS_P2;Temp;Humidity;BMP_temperature;BMP_pressure;BME280_temperature;BME280_humidity;BME280_pressure;Samples;Min_cycle;Max_cycle;Signal;HPM_P1;HPM_P2
2021/12/24 00:00:45;386632.00;1.29;666.83;0.00;0.00;0.62;;;;;13.30;1.00;;;;;;2512625;40;3973;31
2021/12/24 00:35:44;178658.00;0.60;309.18;0.00;0.00;0.62;;;;;13.40;1.00;;;;;;2287829;61;1957;-88
2021/12/24 00:38:11;84509.00;0.28;146.83;0.00;0.00;0.62;;;;;13.10;1.00;;;;;;2432570;39;3873;31
2021/12/24 01:15:25;35871.00;0.12;62.74;0.00;0.00;0.62;;;;;12.60;1.00;;;;;;2287417;61;1879;-86
2021/12/24 01:28:27;328021.00;1.09;566.08;0.00;0.00;0.62;;;;;11.90;1.00;;;;;;2279267;61;1311;-85
2021/12/24 01:38:51;278887.00;0.93;481.62;25364.00;0.08;44.56;;;;;12.00;1.00;;;;;;2279615;61;1306;-86
2021/12/24 01:43:47;613584.00;2.05;1057.68;109577.00;0.37;190.10;;;;;12.20;1.00;;;;;;2279364;61;1282;-87
2021/12/24 01:46:14;344400.00;1.15;594.24;126464.00;0.42;219.23;;;;;12.30;1.00;;;;;;2277614;61;399;-86
2021/12/24 01:51:10;131181.00;0.44;227.37;0.00;0.00;0.62;;;;;12.20;1.00;;;;;;2287264;61;1399;-85
2021/12/24 01:53:37;310304.00;1.03;535.63;95177.00;0.32;165.25;;;;;12.00;1.00;;;;;;2281152;61;805;-87
2021/12/24 01:56:05;233333.00;0.78;403.28;36889.00;0.12;64.51;;;;;11.80;1.00;;;;;;2274420;61;1997;-87
2021/12/24 02:03:27;60028.00;0.20;104.53;0.00;0.00;0.62;;;;;11.90;1.00;;;;;;2283096;61;1310;-87
2021/12/24 02:05:54;117091744.00;390.31;65028592.00;116976552.00;389.92;64836692.00;;;;;12.00;1.00;;;;;;2273017;61;921;-86
2021/12/24 02:08:22;131761.00;0.44;228.37;0.00;0.00;0.62;;;;;12.20;1.00;;;;;;2264856;61;922;-86
2021/12/24 02:10:51;232024.00;0.77;401.03;19321.00;0.06;34.09;;;;;12.10;1.00;;;;;;2261565;61;1312;-87
2021/12/24 02:16:01;66687.00;0.22;116.04;0.00;0.00;0.62;;;;;12.10;1.00;;;;;;2287230;61;1887;-86
2021/12/24 02:28:14;412345.00;1.37;711.03;107417.00;0.36;186.37;;;;;11.80;1.00;;;;;;2285282;61;840;-88
2021/12/24 02:29:28;508268.00;1.69;876.06;101629.00;0.34;176.38;;;;;11.50;1.00;;;;;;2285701;61;387;-85
2021/12/24 02:34:25;285035.00;0.95;492.19;96439.00;0.32;167.42;;;;;11.80;1.00;;;;;;2278854;61;1946;-86
2021/12/24 02:36:52;216409.00;0.72;374.16;88564.00;0.30;153.83;;;;;11.90;1.00;;;;;;2277484;61;387;-86
2021/12/24 02:39:20;257373.00;0.86;444.63;95028.00;0.32;164.99;;;;;11.90;1.00;;;;;;2277490;61;398;-87
2021/12/24 02:44:15;73097.00;0.24;127.11;0.00;0.00;0.62;;;;;11.90;1.00;;;;;;2278814;61;1279;-86
2021/12/24 02:47:05;246500.00;0.82;425.93;16009.00;0.05;28.36;;;;;12.00;1.00;;;;;;2277472;61;500;-87
2021/12/24 02:54:26;170998.00;0.57;295.99;0.00;0.00;0.62;;;;;12.40;1.00;;;;;;2287020;61;1953;-87
2021/12/24 02:56:59;163830.00;0.55;283.64;0.00;0.00;0.62;;;;;12.60;1.00;;;;;;2285587;61;387;-86
2021/12/24 03:04:22;275556.00;0.92;475.90;24960.00;0.08;43.86;;;;;13.00;1.00;;;;;;2279265;61;1307;-85
2021/12/24 03:06:51;76606.00;0.26;133.17;0.00;0.00;0.62;;;;;13.20;1.00;;;;;;2276967;61;912;-86
2021/12/24 03:09:20;97799.00;0.33;169.77;0.00;0.00;0.62;;;;;12.90;1.00;;;;;;2277376;61;504;-85
2021/12/24 03:11:51;74808.00;0.25;130.07;0.00;0.00;0.62;;;;;12.40;1.00;;;;;;2277312;61;1312;-85
2021/12/24 03:16:52;134887.00;0.45;233.76;0.00;0.00;0.62;;;;;12.50;1.00;;;;;;2287500;61;1290;-84
2021/12/24 03:21:53;121833.00;0.41;211.24;0.00;0.00;0.62;;;;;12.30;1.00;;;;;;2282890;61;1386;-84
2021/12/24 03:26:50;105710.00;0.35;183.43;0.00;0.00;0.62;;;;;12.30;1.00;;;;;;2278793;61;1271;-87
2021/12/24 03:29:19;84637.00;0.28;147.05;0.00;0.00;0.62;;;;;12.30;1.00;;;;;;2277333;61;508;-86
2021/12/24 03:31:47;169672.00;0.57;293.70;0.00;0.00;0.62;;;;;12.10;1.00;;;;;;2277272;61;1305;-86
2021/12/24 05:03:02;89620.00;0.30;155.65;0.00;0.00;0.62;;;;;11.40;1.00;;;;;;2283444;61;1286;-86
2021/12/24 05:18:04;529471.00;1.76;912.58;94932.00;0.32;164.82;;;;;11.90;1.00;;;;;;2478490;39;3527;31
2021/12/24 05:25:28;405950.00;1.35;700.03;82289.00;0.27;142.99;;;;;11.40;1.00;;;;;;2282807;60;1256;-87
2021/12/24 05:27:56;212057.00;0.71;366.68;101148.00;0.34;175.55;;;;;11.60;1.00;;;;;;2277253;60;1009;-88
2021/12/24 05:30:23;231250.00;0.77;399.70;96638.00;0.32;167.77;;;;;11.50;1.00;;;;;;2272366;61;1007;-89
2021/12/24 05:32:50;267543.00;0.89;462.12;86024.00;0.29;149.44;;;;;11.60;1.00;;;;;;2272495;61;1293;-87
2021/12/24 05:35:17;232053.00;0.77;401.08;81068.00;0.27;140.88;;;;;11.60;1.00;;;;;;2272330;61;2009;-88
2021/12/24 05:37:44;239227.00;0.80;413.42;91661.00;0.31;159.18;;;;;11.50;1.00;;;;;;2272455;61;955;-88
2021/12/24 05:40:12;266543.00;0.89;460.40;85316.00;0.28;148.22;;;;;11.60;1.00;;;;;;2268306;61;1073;-90
2021/12/24 05:42:40;247835.00;0.83;428.23;106712.00;0.36;185.16;;;;;11.40;1.00;;;;;;2268344;61;1417;-87
2021/12/24 05:45:10;208723.00;0.70;360.94;111565.00;0.37;193.53;;;;;11.40;1.00;;;;;;2268351;61;982;-89
2021/12/24 05:47:38;396145.00;1.32;683.18;117683.00;0.39;204.09;;;;;11.40;1.00;;;;;;2260807;61;937;-88
2021/12/24 05:50:06;224868.00;0.75;388.72;89900.00;0.30;156.14;;;;;11.30;1.00;;;;;;2264263;61;1016;-88
2021/12/24 05:52:34;350723.00;1.17;605.10;91094.00;0.30;158.20;;;;;11.60;1.00;;;;;;2264252;61;1020;-89
2021/12/24 05:55:01;388016.00;1.29;669.20;88415.00;0.29;153.57;;;;;11.60;1.00;;;;;;2264173;61;2002;-89
2021/12/24 05:57:29;376812.00;1.26;649.95;101798.00;0.34;176.68;;;;;11.50;1.00;;;;;;2264935;61;946;-88
2021/12/24 05:59:57;514224.00;1.71;886.32;135666.00;0.45;235.10;;;;;11.50;1.00;;;;;;2268251;61;990;-88
2021/12/24 06:02:24;300420.00;1.00;518.64;87173.00;0.29;151.43;;;;;11.60;1.00;;;;;;2268279;61;1022;-88
2021/12/24 06:04:51;315924.00;1.05;545.29;90115.00;0.30;156.51;;;;;11.60;1.00;;;;;;2268865;61;1464;-88
2021/12/24 06:07:18;342007.00;1.14;590.12;86615.00;0.29;150.46;;;;;11.40;1.00;;;;;;2272938;61;1037;-89
2021/12/24 06:09:45;510759.00;1.70;880.35;125264.00;0.42;217.16;;;;;11.40;1.00;;;;;;2276875;61;929;-87
2021/12/24 06:12:12;291625.00;0.97;503.52;96867.00;0.32;168.16;;;;;11.40;1.00;;;;;;2276861;61;935;-89
2021/12/24 06:14:40;519985.00;1.73;896.24;142423.00;0.47;246.75;;;;;11.40;1.00;;;;;;2272125;61;1309;-89
2021/12/24 06:17:15;296295.00;0.99;511.55;95309.00;0.32;165.47;;;;;11.30;1.00;;;;;;2272276;61;979;-88
2021/12/24 06:19:42;429849.00;1.43;741.13;92172.00;0.31;160.06;;;;;11.20;1.00;;;;;;2265405;61;1011;-88
2021/12/24 06:22:10;339268.00;1.13;585.42;86562.00;0.29;150.37;;;;;11.10;1.00;;;;;;2264133;61;1139;-89
2021/12/24 06:24:37;413620.00;1.38;713.22;91032.00;0.30;158.09;;;;;11.10;1.00;;;;;;2251979;61;1518;-89
2021/12/24 06:27:05;369808.00;1.23;637.91;95630.00;0.32;166.03;;;;;11.20;1.00;;;;;;2252202;61;1024;-87
2021/12/24 06:29:32;320683.00;1.07;553.47;90083.00;0.30;156.45;;;;;11.20;1.00;;;;;;2251975;61;979;-85
2021/12/24 06:31:59;403791.00;1.35;696.32;92813.00;0.31;161.16;;;;;11.40;1.00;;;;;;2252801;61;945;-89
2021/12/24 06:34:30;413726.00;1.38;713.40;91286.00;0.30;158.53;;;;;11.50;1.00;;;;;;2249547;61;1482;-87
2021/12/24 06:36:58;315941.00;1.05;545.32;87442.00;0.29;151.89;;;;;11.30;1.00;;;;;;2259296;61;2017;-88
2021/12/24 06:39:26;425270.00;1.42;733.25;143279.00;0.48;248.22;;;;;11.00;1.00;;;;;;2260703;61;1113;-87
2021/12/24 06:41:53;373540.00;1.25;644.32;91274.00;0.30;158.51;;;;;11.00;1.00;;;;;;2265996;61;1045;-89
2021/12/24 06:44:21;400022.00;1.33;689.84;95383.00;0.32;165.60;;;;;10.90;1.00;;;;;;2272083;61;1315;-87
2021/12/24 06:46:49;510284.00;1.70;879.53;95333.00;0.32;165.52;;;;;10.80;1.00;;;;;;2271941;61;989;-88
2021/12/24 06:49:17;323819.00;1.08;558.86;91786.00;0.31;159.39;;;;;10.80;1.00;;;;;;2265530;61;1005;-88
2021/12/24 06:51:45;328002.00;1.09;566.05;91037.00;0.30;158.10;;;;;11.00;1.00;;;;;;2272220;61;1004;-88
2021/12/24 06:54:12;339361.00;1.13;585.58;69325.00;0.23;120.59;;;;;11.00;1.00;;;;;;2262185;61;1332;-88
2021/12/24 06:56:40;580770.00;1.94;1001.03;104837.00;0.35;181.92;;;;;11.10;1.00;;;;;;2262055;61;2014;-88
2021/12/24 06:59:07;491593.00;1.64;847.35;92539.00;0.31;160.69;;;;;11.10;1.00;;;;;;2268023;61;1064;-89
2021/12/24 07:01:36;270094.00;0.90;466.51;81384.00;0.27;141.43;;;;;11.40;1.00;;;;;;2268663;61;1093;-89
2021/12/24 07:04:04;481020.00;1.60;829.15;92742.00;0.31;161.04;;;;;11.30;1.00;;;;;;2272199;61;1438;-88
2021/12/24 07:06:31;446957.00;1.49;770.55;92744.00;0.31;161.05;;;;;11.20;1.00;;;;;;2272087;61;932;-89
2021/12/24 07:08:59;392049.00;1.31;676.14;91405.00;0.30;158.73;;;;;11.10;1.00;;;;;;2272107;61;1020;-87
2021/12/24 07:11:26;448611.00;1.50;773.39;90079.00;0.30;156.44;;;;;11.20;1.00;;;;;;2272013;61;1031;-88
2021/12/24 07:13:54;276379.00;0.92;477.31;102435.00;0.34;177.77;;;;;11.20;1.00;;;;;;2263843;61;1395;-89
2021/12/24 07:16:21;361096.00;1.20;622.93;91604.00;0.31;159.08;;;;;11.10;1.00;;;;;;2264647;61;1997;-88
2021/12/24 07:18:48;304038.00;1.01;524.86;92665.00;0.31;160.91;;;;;11.20;1.00;;;;;;2268127;61;913;-88
2021/12/24 07:21:15;362091.00;1.21;624.64;90146.00;0.30;156.56;;;;;11.30;1.00;;;;;;2264678;61;1007;-88
2021/12/24 07:23:42;353795.00;1.18;610.38;99350.00;0.33;172.45;;;;;11.30;1.00;;;;;;2267924;61;1329;-88
2021/12/24 07:26:11;323173.00;1.08;557.75;86572.00;0.29;150.39;;;;;11.40;1.00;;;;;;2268074;61;958;-88
2021/12/24 07:28:38;369284.00;1.23;637.01;76620.00;0.26;133.20;;;;;11.30;1.00;;;;;;2268068;61;1019;-90
2021/12/24 07:31:05;305719.00;1.02;527.75;81989.00;0.27;142.47;;;;;11.40;1.00;;;;;;2266308;61;1023;-90
2021/12/24 07:33:32;280066.00;0.93;483.65;97367.00;0.32;169.03;;;;;11.60;1.00;;;;;;2272681;61;1436;-87
2021/12/24 07:35:59;382263.00;1.27;659.32;110452.00;0.37;191.61;;;;;11.50;1.00;;;;;;2272674;61;1916;-88
2021/12/24 07:38:26;315551.00;1.05;544.65;101068.00;0.34;175.42;;;;;11.60;1.00;;;;;;2268575;61;999;-89
2021/12/24 07:40:53;285709.00;0.95;493.35;83362.00;0.28;144.84;;;;;11.80;1.00;;;;;;2268527;61;1042;-89
2021/12/24 07:43:21;200595.00;0.67;346.95;90968.00;0.30;157.98;;;;;11.80;1.00;;;;;;2268583;61;1420;-87
2021/12/24 07:45:50;382614.00;1.28;659.92;90464.00;0.30;157.11;;;;;12.00;1.00;;;;;;2260534;61;985;-89
2021/12/24 07:48:26;207893.00;0.69;359.51;100200.00;0.33;173.92;;;;;12.10;1.00;;;;;;2257278;61;981;-87
2021/12/24 07:53:37;316285.00;1.05;545.91;95512.00;0.32;165.82;;;;;12.30;1.00;;;;;;2264698;61;1327;-88
2021/12/24 07:56:05;257366.00;0.86;444.62;89968.00;0.30;156.25;;;;;12.10;1.00;;;;;;2265759;61;1991;-89
2021/12/24 07:58:33;213840.00;0.71;369.74;76084.00;0.25;132.27;;;;;11.90;1.00;;;;;;2264561;61;931;-89
2021/12/24 08:01:00;332238.00;1.11;573.33;97602.00;0.33;169.43;;;;;11.90;1.00;;;;;;2264657;61;1034;-88
2021/12/24 08:03:27;211656.00;0.71;365.99;86550.00;0.29;150.35;;;;;12.00;1.00;;;;;;2267214;61;1260;-87
2021/12/24 08:08:22;255858.00;0.85;442.03;94501.00;0.32;164.08;;;;;12.20;1.00;;;;;;2282665;60;1370;-85
2021/12/24 08:10:49;472938.00;1.58;815.24;138694.00;0.46;240.32;;;;;12.40;1.00;;;;;;2281145;60;994;-88
2021/12/24 08:13:17;209711.00;0.70;362.64;93251.00;0.31;161.92;;;;;12.30;1.00;;;;;;2277257;60;1379;-89
2021/12/24 08:15:49;266354.00;0.89;460.07;79791.00;0.27;138.68;;;;;12.20;1.00;;;;;;2273599;60;1923;-87
2021/12/24 08:18:16;230537.00;0.77;398.47;104337.00;0.35;181.06;;;;;12.20;1.00;;;;;;2274069;60;1024;-88
2021/12/24 08:20:43;197006.00;0.66;340.77;89060.00;0.30;154.68;;;;;12.00;1.00;;;;;;2281155;60;1014;-86
2021/12/24 08:25:38;379971.00;1.27;655.38;87924.00;0.29;152.72;;;;;11.90;1.00;;;;;;2278706;61;1421;-89
2021/12/24 08:28:05;207826.00;0.69;359.39;96359.00;0.32;167.29;;;;;11.80;1.00;;;;;;2277154;61;1026;-88
2021/12/24 08:30:32;211935.00;0.71;366.47;90069.00;0.30;156.43;;;;;11.70;1.00;;;;;;2277007;61;970;-86
2021/12/24 08:33:01;176972.00;0.59;306.27;79639.00;0.27;138.41;;;;;11.60;1.00;;;;;;2277006;61;1399;-88
2021/12/24 08:35:29;240975.00;0.80;416.43;87450.00;0.29;151.90;;;;;11.60;1.00;;;;;;2272339;61;1911;-89
2021/12/24 08:37:56;305174.00;1.02;526.81;91040.00;0.30;158.10;;;;;11.40;1.00;;;;;;2265824;61;955;-88
2021/12/24 08:40:23;240554.00;0.80;415.70;94393.00;0.31;163.89;;;;;11.10;1.00;;;;;;2265894;61;1000;-89
2021/12/24 08:42:50;219957.00;0.73;380.27;90471.00;0.30;157.12;;;;;11.20;1.00;;;;;;2264175;61;1446;-88
2021/12/24 08:45:17;191609.00;0.64;331.48;87777.00;0.29;152.47;;;;;11.20;1.00;;;;;;2257783;61;982;-88
2021/12/24 08:50:14;349368.00;1.16;602.77;77988.00;0.26;135.56;;;;;11.40;1.00;;;;;;2282729;60;1417;-89
2021/12/24 08:52:44;257557.00;0.86;444.95;89965.00;0.30;156.25;;;;;11.80;1.00;;;;;;2270695;60;1353;-88
2021/12/24 08:57:44;823736.00;2.75;1422.55;91638.00;0.31;159.14;;;;;12.30;1.00;;;;;;2274628;61;1918;-82
2021/12/24 09:00:14;560635.00;1.87;966.30;120557.00;0.40;209.04;;;;;12.40;1.00;;;;;;2272866;61;943;-84
2021/12/24 09:02:41;488750.00;1.63;842.46;82379.00;0.27;143.15;;;;;12.50;1.00;;;;;;2275553;40;2270;-84
2021/12/24 09:05:11;935078.00;3.12;1617.81;102991.00;0.34;178.73;;;;;12.50;1.00;;;;;;2278745;61;1476;-83
2021/12/24 09:07:40;485490.00;1.62;836.85;88149.00;0.29;153.11;;;;;12.70;1.00;;;;;;2276910;61;1052;-84
2021/12/24 09:10:09;541430.00;1.80;933.19;88777.00;0.30;154.20;;;;;12.80;1.00;;;;;;2269677;61;1057;-86
2021/12/24 09:12:36;492611.00;1.64;849.10;92434.00;0.31;160.51;;;;;12.80;1.00;;;;;;2269702;61;979;-85
2021/12/24 09:15:04;496319.00;1.65;855.49;89151.00;0.30;154.84;;;;;12.80;1.00;;;;;;2268293;61;1470;-87
2021/12/24 09:17:31;461720.00;1.54;795.94;91223.00;0.30;158.42;;;;;12.90;1.00;;;;;;2264975;61;2013;-89
2021/12/24 09:22:30;645785.00;2.15;1113.34;104484.00;0.35;181.31;;;;;12.70;1.00;;;;;;2282384;60;1389;-87
2021/12/24 09:24:59;533708.00;1.78;919.88;87299.00;0.29;151.64;;;;;13.10;1.00;;;;;;2269683;61;1318;-89
2021/12/24 09:27:27;581499.00;1.94;1002.29;102626.00;0.34;178.10;;;;;13.10;1.00;;;;;;2276358;61;978;-89
2021/12/24 09:29:54;502904.00;1.68;866.82;91348.00;0.30;158.64;;;;;13.10;1.00;;;;;;2267843;61;1026;-89
2021/12/24 09:32:23;439801.00;1.47;758.24;87626.00;0.29;152.21;;;;;13.30;1.00;;;;;;2268120;61;1016;-87
2021/12/24 09:34:50;601236.00;2.00;1036.35;92417.00;0.31;160.48;;;;;13.40;1.00;;;;;;2268193;61;1362;-89
2021/12/24 09:37:17;526026.00;1.75;906.65;97608.00;0.33;169.44;;;;;13.20;1.00;;;;;;2268193;61;1923;-88
2021/12/24 09:39:44;444978.00;1.48;767.14;88607.00;0.30;153.90;;;;;13.40;1.00;;;;;;2264757;61;1050;-89
2021/12/24 09:42:12;401709.00;1.34;692.74;92047.00;0.31;159.84;;;;;13.40;1.00;;;;;;2260083;61;987;-89
2021/12/24 09:44:39;335112.00;1.12;578.27;89899.00;0.30;156.13;;;;;13.60;1.00;;;;;;2260230;61;1456;-90
2021/12/24 09:47:07;339332.00;1.13;585.53;91361.00;0.30;158.66;;;;;13.60;1.00;;;;;;2260635;61;1056;-89
2021/12/24 09:49:34;411110.00;1.37;708.91;86523.00;0.29;150.30;;;;;13.60;1.00;;;;;;2264222;61;1089;-87
2021/12/24 09:52:03;388830.00;1.30;670.60;88374.00;0.29;153.50;;;;;13.70;1.00;;;;;;2252221;61;1097;-90
2021/12/24 09:54:30;361020.00;1.20;622.80;85777.00;0.29;149.02;;;;;14.00;1.00;;;;;;2251990;61;1361;-88
2021/12/24 09:56:59;313662.00;1.05;541.40;90766.00;0.30;157.63;;;;;13.50;1.00;;;;;;2252225;61;2006;-87
2021/12/24 09:59:27;312968.00;1.04;540.21;88584.00;0.30;153.86;;;;;13.20;1.00;;;;;;2254042;61;1161;-89
2021/12/24 10:01:57;399125.00;1.33;688.30;89195.00;0.30;154.92;;;;;13.20;1.00;;;;;;2260926;61;951;-88
2021/12/24 10:04:26;386301.00;1.29;666.26;91897.00;0.31;159.58;;;;;13.20;1.00;;;;;;2264226;61;1411;-85
2021/12/24 10:06:54;481355.00;1.60;829.73;82736.00;0.28;143.76;;;;;13.40;1.00;;;;;;2264205;61;1035;-86
2021/12/24 10:09:22;14834.00;0.05;26.32;0.00;0.00;0.62;;;;;13.10;1.00;;;;;;2266603;61;1025;-86
2021/12/24 10:11:52;88330.00;0.29;153.42;0.00;0.00;0.62;;;;;12.60;1.00;;;;;;2269673;61;997;-86
2021/12/24 10:14:20;10915.00;0.04;19.53;0.00;0.00;0.62;;;;;12.10;1.00;;;;;;2268106;61;1427;-88
2021/12/24 10:16:51;79130.00;0.26;137.53;0.00;0.00;0.62;;;;;12.00;1.00;;;;;;2268235;61;1992;-86
2021/12/24 10:19:19;50743.00;0.17;88.47;0.00;0.00;0.62;;;;;12.10;1.00;;;;;;2268296;61;965;-87
2021/12/24 10:21:47;251280.00;0.84;434.15;0.00;0.00;0.62;;;;;12.10;1.00;;;;;;2268119;61;977;-87
2021/12/24 10:24:17;21762.00;0.07;38.32;0.00;0.00;0.62;;;;;12.20;1.00;;;;;;2261354;61;1360;-86
2021/12/24 10:26:47;20889.00;0.07;36.81;0.00;0.00;0.62;;;;;11.90;1.00;;;;;;2268134;61;1185;-87
2021/12/24 10:29:17;86490.00;0.29;150.25;0.00;0.00;0.62;;;;;11.70;1.00;;;;;;2267969;61;987;-85
2021/12/24 10:31:47;53110.00;0.18;92.56;0.00;0.00;0.62;;;;;11.60;1.00;;;;;;2261823;61;1036;-86
2021/12/24 10:34:25;29296.00;0.10;51.36;0.00;0.00;0.62;;;;;11.60;1.00;;;;;;2264683;61;1292;-85
2021/12/24 10:36:57;14945.00;0.05;26.52;0.00;0.00;0.62;;;;;11.70;1.00;;;;;;2258207;61;2004;-87
2021/12/24 10:39:26;6070.00;0.02;11.14;0.00;0.00;0.62;;;;;11.70;1.00;;;;;;2268190;61;1097;-87
2021/12/24 10:41:55;105120.00;0.35;182.41;0.00;0.00;0.62;;;;;11.80;1.00;;;;;;2268089;61;944;-86
2021/12/24 10:44:24;4999.00;0.02;9.28;0.00;0.00;0.62;;;;;11.90;1.00;;;;;;2261052;61;1317;-85
2021/12/24 10:47:12;46794.00;0.16;81.64;0.00;0.00;0.62;;;;;11.80;1.00;;;;;;2264234;61;1109;-85
2021/12/24 10:53:12;29814.00;0.10;52.26;0.00;0.00;0.62;;;;;12.30;1.00;;;;;;2263976;61;1064;-85
2021/12/24 10:55:47;350764.00;1.17;605.17;96502.00;0.32;167.53;;;;;12.30;1.00;;;;;;2263854;61;1240;-85
2021/12/24 10:58:16;207807.00;0.69;359.36;81343.00;0.27;141.36;;;;;12.60;1.00;;;;;;2257040;61;2021;-85
2021/12/24 11:00:48;238400.00;0.79;412.00;91103.00;0.30;158.21;;;;;12.80;1.00;;;;;;2256890;61;1096;-84
2021/12/24 11:03:20;309338.00;1.03;533.97;88964.00;0.30;154.52;;;;;12.90;1.00;;;;;;2263532;61;1318;-85
2021/12/24 11:05:52;589254.00;1.96;1015.67;91149.00;0.30;158.29;;;;;13.20;1.00;;;;;;2256781;61;1144;-84
2021/12/24 11:08:20;434721.00;1.45;749.50;90275.00;0.30;156.78;;;;;13.10;1.00;;;;;;2263820;61;1180;-86
2021/12/24 11:10:49;346826.00;1.16;598.41;92626.00;0.31;160.84;;;;;13.20;1.00;;;;;;2264112;61;1104;-86
2021/12/24 11:13:18;454679.00;1.52;783.83;94647.00;0.32;164.33;;;;;13.30;1.00;;;;;;2263956;61;1379;-85
2021/12/24 11:15:48;523738.00;1.75;902.70;89535.00;0.30;155.50;;;;;13.50;1.00;;;;;;2257148;61;1207;-85
2021/12/24 11:18:18;484843.00;1.62;835.73;96943.00;0.32;168.29;;;;;13.80;1.00;;;;;;2255486;61;2003;-84
2021/12/24 11:20:50;422123.00;1.41;727.84;84753.00;0.28;147.25;;;;;13.80;1.00;;;;;;2249441;61;1174;-87
2021/12/24 11:25:50;648116.00;2.16;1117.38;71226.00;0.24;123.88;;;;;13.80;1.00;;;;;;2280317;61;1427;-87
2021/12/24 11:28:18;618939.00;2.06;1066.93;96753.00;0.32;167.97;;;;;13.50;1.00;;;;;;2273790;61;1694;-88
2021/12/24 11:30:49;118714608.00;395.72;67772576.00;94594.00;0.32;164.24;;;;;13.20;1.00;;;;;;2277719;61;1105;-88
2021/12/24 11:33:19;718616.00;2.40;1239.54;103819.00;0.35;180.16;;;;;13.10;1.00;;;;;;2273346;60;1336;-89
2021/12/24 11:35:50;744164.00;2.48;1283.91;125334.00;0.42;217.28;;;;;12.90;1.00;;;;;;2271117;61;1049;-88
2021/12/24 11:38:19;678966.00;2.26;1170.78;98220.00;0.33;170.50;;;;;13.00;1.00;;;;;;2271561;61;2041;-89
2021/12/24 11:40:50;748039.00;2.49;1290.65;91788.00;0.31;159.39;;;;;13.10;1.00;;;;;;2272166;61;942;-90
2021/12/24 11:43:19;754978.00;2.52;1302.71;90416.00;0.30;157.03;;;;;13.20;1.00;;;;;;2262606;61;1431;-89
2021/12/24 11:45:46;682578.00;2.28;1177.04;100536.00;0.34;174.50;;;;;13.20;1.00;;;;;;2267614;61;1739;-88
2021/12/24 11:48:14;1167702.00;3.89;2031.93;89271.00;0.30;155.05;;;;;13.20;1.00;;;;;;2267504;61;1179;-88
2021/12/24 11:50:42;909705.00;3.03;1573.17;89280.00;0.30;155.06;;;;;13.20;1.00;;;;;;2268496;61;1173;-88
2021/12/24 11:53:14;529360.00;1.76;912.39;91251.00;0.30;158.47;;;;;13.10;1.00;;;;;;2269544;61;1374;-88
2021/12/24 11:55:48;669305.00;2.23;1154.05;105151.00;0.35;182.46;;;;;13.00;1.00;;;;;;2271539;61;1132;-89
2021/12/24 11:58:20;512657.00;1.71;883.62;80820.00;0.27;140.45;;;;;13.00;1.00;;;;;;2272453;61;1935;-87
2021/12/24 12:00:51;445692.00;1.49;768.37;0.00;0.00;0.62;;;;;12.90;1.00;;;;;;2271529;61;1143;-87
2021/12/24 12:03:34;569293.00;1.90;981.23;0.00;0.00;0.62;;;;;13.00;1.00;;;;;;2272789;61;1360;-88
2021/12/24 12:06:02;475888.00;1.59;820.32;0.00;0.00;0.62;;;;;13.00;1.00;;;;;;2276635;61;1254;-87
2021/12/24 12:08:38;538500.00;1.79;928.14;0.00;0.00;0.62;;;;;13.10;1.00;;;;;;2266262;61;1202;-87
2021/12/24 12:11:30;306397.00;1.02;528.92;0.00;0.00;0.62;;;;;12.90;1.00;;;;;;2277164;61;1448;-88
2021/12/24 12:14:07;176935.00;0.59;306.21;0.00;0.00;0.62;;;;;12.80;1.00;;;;;;2267865;61;1600;-88
2021/12/24 12:16:49;240588.00;0.80;415.76;0.00;0.00;0.62;;;;;13.10;1.00;;;;;;2267551;61;2001;-88
2021/12/24 12:19:23;230502.00;0.77;398.41;0.00;0.00;0.62;;;;;13.20;1.00;;;;;;2267222;61;1084;-88
2021/12/24 12:22:14;335759.00;1.12;579.38;0.00;0.00;0.62;;;;;13.10;1.00;;;;;;2267985;61;1179;-88
2021/12/24 12:27:32;281381.00;0.94;485.91;0.00;0.00;0.62;;;;;12.90;1.00;;;;;;2267767;61;1082;-87
2021/12/24 12:30:29;241258.00;0.80;416.92;0.00;0.00;0.62;;;;;12.80;1.00;;;;;;2267730;61;1361;-87
2021/12/24 12:33:10;188186.00;0.63;325.59;0.00;0.00;0.62;;;;;12.70;1.00;;;;;;2276159;61;1083;-87
2021/12/24 12:35:54;374890.00;1.25;646.64;46394.00;0.15;80.95;;;;;12.70;1.00;;;;;;2277060;61;1123;-87
2021/12/24 12:38:33;239761.00;0.80;414.34;0.00;0.00;0.62;;;;;12.30;1.00;;;;;;2281038;60;1994;-88
2021/12/24 12:41:31;322906.00;1.08;557.29;0.00;0.00;0.62;;;;;12.10;1.00;;;;;;2281323;60;925;-89
2021/12/24 12:44:21;;;;;;;;;;;;;;;;;;;;;
2021/12/24 12:51:00;301579.00;1.01;520.63;0.00;0.00;0.62;;;;;12.30;1.00;;;;;;2243083;62;1052;-87
2021/12/24 12:53:37;635681.00;2.12;1095.87;0.00;0.00;0.62;;;;;12.30;1.00;;;;;;2227608;62;1475;-88
2021/12/24 12:56:45;746552.00;2.49;1288.06;0.00;0.00;0.62;;;;;12.20;1.00;;;;;;2227070;62;1091;-87
2021/12/24 12:59:43;220516.00;0.74;381.23;0.00;0.00;0.62;;;;;12.30;1.00;;;;;;2227228;62;1659;-88
2021/12/24 13:03:06;358154.00;1.19;617.88;0.00;0.00;0.62;;;;;12.50;1.00;;;;;;2227920;62;1185;-85
2021/12/24 13:06:34;543257.00;1.81;936.34;88259.00;0.29;153.30;;;;;12.50;1.00;;;;;;2239691;62;1094;-88
2021/12/24 13:15:20;305505.00;1.02;527.38;0.00;0.00;0.62;;;;;12.50;1.00;;;;;;2224418;62;1420;-88
2021/12/24 13:18:26;365035.00;1.22;629.70;0.00;0.00;0.62;;;;;12.40;1.00;;;;;;2226193;62;2017;-87
2021/12/24 13:24:02;337163.00;1.12;581.80;0.00;0.00;0.62;;;;;11.80;1.00;;;;;;2233644;62;1311;-87
2021/12/24 13:26:53;;;;;;;;;;;;;;;;;;;;;
2021/12/24 13:42:17;;;;;;;;;;;;;;;;;;;;;
2021/12/24 13:45:34;495864.00;1.65;854.70;0.00;0.00;0.62;;;;;12.90;1.00;;;;;;2218960;62;1442;-87
2021/12/24 14:05:56;;;;;;;;;;;;;;;;;;;;;
2021/12/24 14:11:50;348126.00;1.16;600.64;0.00;0.00;0.62;;;;;12.50;1.00;;;;;;2233351;62;1027;-86
2021/12/24 14:15:07;304573.00;1.02;525.78;0.00;0.00;0.62;;;;;12.50;1.00;;;;;;2238169;62;1485;-86
2021/12/24 14:24:17;;;;;;;;;;;;;;;;;;;;;
2021/12/24 14:30:43;568270.00;1.89;979.46;0.00;0.00;0.62;;;;;12.10;1.00;;;;;;2209171;63;1136;-88
2021/12/24 16:13:21;;;;;;;;;;;;;;;;;;;;;
2021/12/24 16:41:54;399802.00;1.33;689.46;0.00;0.00;0.62;;;;;12.00;1.00;;;;;;2179356;63;1309;-87
2021/12/24 16:44:28;128285824.00;427.62;85540664.00;0.00;0.00;0.62;;;;;12.30;1.00;;;;;;2165502;64;1303;-88
2021/12/24 16:47:04;389619.00;1.30;671.96;0.00;0.00;0.62;;;;;12.40;1.00;;;;;;2161870;64;1073;-88
2021/12/24 16:49:31;311168.00;1.04;537.12;0.00;0.00;0.62;;;;;12.50;1.00;;;;;;2170193;64;1107;-87
2021/12/24 16:52:00;316764.00;1.06;546.74;0.00;0.00;0.62;;;;;12.60;1.00;;;;;;2177011;63;1158;-87
2021/12/24 16:54:36;217481.00;0.72;376.01;0.00;0.00;0.62;;;;;12.60;1.00;;;;;;2186334;63;1414;-88
2021/12/24 16:57:10;278552.00;0.93;481.05;0.00;0.00;0.62;;;;;12.70;1.00;;;;;;2180668;63;1177;-87
2021/12/24 16:59:42;342386.00;1.14;590.77;0.00;0.00;0.62;;;;;12.70;1.00;;;;;;2186223;63;1935;-88
2021/12/24 17:02:13;344109.00;1.15;593.74;0.00;0.00;0.62;;;;;13.00;1.00;;;;;;2184603;63;1125;-88
2021/12/24 17:04:40;412416.00;1.37;711.15;0.00;0.00;0.62;;;;;13.10;1.00;;;;;;2192585;63;1365;-88
2021/12/24 17:07:09;431705.00;1.44;744.32;16643.00;0.06;29.46;;;;;13.20;1.00;;;;;;2194706;63;1047;-88
2021/12/24 17:09:37;351671.00;1.17;606.73;0.00;0.00;0.62;;;;;13.20;1.00;;;;;;2201364;63;1195;-88
2021/12/24 17:12:07;355337.00;1.18;613.03;0.00;0.00;0.62;;;;;13.10;1.00;;;;;;2208312;62;1359;-89
2021/12/24 17:14:37;246960.00;0.82;426.72;0.00;0.00;0.62;;;;;13.20;1.00;;;;;;2214594;62;1288;-88
2021/12/24 17:17:06;285489.00;0.95;492.97;0.00;0.00;0.62;;;;;13.10;1.00;;;;;;2225609;62;1182;-88
2021/12/24 17:19:33;215913.00;0.72;373.31;0.00;0.00;0.62;;;;;12.90;1.00;;;;;;2247339;61;1928;-87
2021/12/24 17:22:01;294329.00;0.98;508.17;0.00;0.00;0.62;;;;;12.80;1.00;;;;;;2261208;61;1146;-88
2021/12/24 17:32:46;680523.00;2.27;1173.48;28775.00;0.10;50.46;;;;;12.30;1.00;;;;;;2276012;61;1461;-87